sensor_id;sensor_type;location;lat;lon;timestamp;P1;durP1;ratioP1;P2;durP2;ratioP2
30299;SDS011;17110;52.602;12.998;2023-01-10T00:00:29;5.93;;;5.30;;
30299;SDS011;17110;52.602;12.998;2023-01-10T00:02:59;6.75;;;5.13;;
30299;SDS011;17110;52.602;12.998;2023-01-10T00:05:25;6.07;;;5.13;;
30299;SDS011;17110;52.602;12.998;2023-01-10T00:07:51;5.83;;;5.17;;
30299;SDS011;17110;52.602;12.998;2023-01-10T00:10:16;6.32;;;5.20;;
30299;SDS011;17110;52.602;12.998;2023-01-10T00:12:42;5.60;;;5.10;;
30299;SDS011;17110;52.602;12.998;2023-01-10T00:15:26;6.60;;;5.18;;
30299;SDS011;17110;52.602;12.998;2023-01-10T00:17:52;6.60;;;5.27;;
30299;SDS011;17110;52.602;12.998;2023-01-10T00:20:17;8.73;;;5.50;;
30299;SDS011;17110;52.602;12.998;2023-01-10T00:22:43;7.25;;;5.03;;
30299;SDS011;17110;52.602;12.998;2023-01-10T00:25:09;5.90;;;5.30;;
30299;SDS011;17110;52.602;12.998;2023-01-10T00:27:35;5.90;;;5.07;;
30299;SDS011;17110;52.602;12.998;2023-01-10T00:30:01;8.65;;;5.00;;
30299;SDS011;17110;52.602;12.998;2023-01-10T00:32:38;7.40;;;5.07;;
30299;SDS011;17110;52.602;12.998;2023-01-10T00:35:05;7.63;;;4.90;;
30299;SDS011;17110;52.602;12.998;2023-01-10T00:37:31;7.43;;;5.00;;
30299;SDS011;17110;52.602;12.998;2023-01-10T00:39:56;6.37;;;5.17;;
30299;SDS011;17110;52.602;12.998;2023-01-10T00:42:23;6.00;;;5.18;;
30299;SDS011;17110;52.602;12.998;2023-01-10T00:45:07;6.82;;;5.75;;
30299;SDS011;17110;52.602;12.998;2023-01-10T00:47:33;8.50;;;5.45;;
30299;SDS011;17110;52.602;12.998;2023-01-10T00:49:58;7.78;;;5.95;;
30299;SDS011;17110;52.602;12.998;2023-01-10T00:54:53;6.45;;;5.60;;
30299;SDS011;17110;52.602;12.998;2023-01-10T00:57:19;8.07;;;6.20;;
30299;SDS011;17110;52.602;12.998;2023-01-10T00:59:45;8.20;;;5.80;;
30299;SDS011;17110;52.602;12.998;2023-01-10T01:02:11;7.60;;;6.40;;
30299;SDS011;17110;52.602;12.998;2023-01-10T01:04:36;7.25;;;6.47;;
30299;SDS011;17110;52.602;12.998;2023-01-10T01:07:02;7.82;;;6.18;;
30299;SDS011;17110;52.602;12.998;2023-01-10T01:09:28;10.90;;;7.67;;
30299;SDS011;17110;52.602;12.998;2023-01-10T01:11:54;8.25;;;7.38;;
30299;SDS011;17110;52.602;12.998;2023-01-10T01:14:21;9.85;;;7.40;;
30299;SDS011;17110;52.602;12.998;2023-01-10T01:16:47;7.73;;;6.93;;
30299;SDS011;17110;52.602;12.998;2023-01-10T01:19:13;7.47;;;5.80;;
30299;SDS011;17110;52.602;12.998;2023-01-10T01:21:39;8.93;;;5.97;;
30299;SDS011;17110;52.602;12.998;2023-01-10T01:24:06;6.32;;;5.53;;
30299;SDS011;17110;52.602;12.998;2023-01-10T01:26:33;7.00;;;4.88;;
30299;SDS011;17110;52.602;12.998;2023-01-10T01:28:59;6.70;;;5.35;;
30299;SDS011;17110;52.602;12.998;2023-01-10T01:31:25;8.00;;;5.57;;
30299;SDS011;17110;52.602;12.998;2023-01-10T01:33:50;6.72;;;5.47;;
30299;SDS011;17110;52.602;12.998;2023-01-10T01:36:16;6.93;;;5.00;;
30299;SDS011;17110;52.602;12.998;2023-01-10T01:38:42;6.10;;;5.33;;
30299;SDS011;17110;52.602;12.998;2023-01-10T01:41:07;7.78;;;5.40;;
30299;SDS011;17110;52.602;12.998;2023-01-10T01:44:36;7.43;;;5.30;;
30299;SDS011;17110;52.602;12.998;2023-01-10T01:46:44;6.35;;;5.60;;
30299;SDS011;17110;52.602;12.998;2023-01-10T01:49:18;7.85;;;6.10;;
30299;SDS011;17110;52.602;12.998;2023-01-10T01:51:50;8.30;;;6.55;;
30299;SDS011;17110;52.602;12.998;2023-01-10T01:54:21;9.23;;;7.00;;
30299;SDS011;17110;52.602;12.998;2023-01-10T01:56:48;9.07;;;6.67;;
30299;SDS011;17110;52.602;12.998;2023-01-10T01:59:21;8.38;;;6.38;;
30299;SDS011;17110;52.602;12.998;2023-01-10T02:02:04;6.80;;;5.78;;
30299;SDS011;17110;52.602;12.998;2023-01-10T02:04:47;7.57;;;5.78;;
30299;SDS011;17110;52.602;12.998;2023-01-10T02:07:16;7.00;;;5.32;;
30299;SDS011;17110;52.602;12.998;2023-01-10T02:09:44;8.15;;;5.75;;
30299;SDS011;17110;52.602;12.998;2023-01-10T02:12:14;7.33;;;4.97;;
30299;SDS011;17110;52.602;12.998;2023-01-10T02:14:41;7.05;;;4.95;;
30299;SDS011;17110;52.602;12.998;2023-01-10T02:17:09;6.63;;;4.57;;
30299;SDS011;17110;52.602;12.998;2023-01-10T02:19:51;5.72;;;4.30;;
30299;SDS011;17110;52.602;12.998;2023-01-10T02:31:24;7.95;;;5.85;;
30299;SDS011;17110;52.602;12.998;2023-01-10T02:41:45;10.00;;;7.00;;
30299;SDS011;17110;52.602;12.998;2023-01-10T02:44:23;11.85;;;7.95;;
30299;SDS011;17110;52.602;12.998;2023-01-10T02:46:54;14.07;;;8.05;;
30299;SDS011;17110;52.602;12.998;2023-01-10T02:49:20;12.25;;;7.28;;
30299;SDS011;17110;52.602;12.998;2023-01-10T02:51:46;10.63;;;7.53;;
30299;SDS011;17110;52.602;12.998;2023-01-10T02:54:13;12.70;;;7.70;;
30299;SDS011;17110;52.602;12.998;2023-01-10T03:05:19;12.27;;;7.32;;
30299;SDS011;17110;52.602;12.998;2023-01-10T03:10:49;11.70;;;7.05;;
30299;SDS011;17110;52.602;12.998;2023-01-10T03:13:33;12.48;;;7.13;;
30299;SDS011;17110;52.602;12.998;2023-01-10T03:16:10;11.20;;;6.97;;
30299;SDS011;17110;52.602;12.998;2023-01-10T03:21:15;9.68;;;6.78;;
30299;SDS011;17110;52.602;12.998;2023-01-10T03:23:44;9.98;;;6.90;;
30299;SDS011;17110;52.602;12.998;2023-01-10T03:26:12;12.25;;;6.93;;
30299;SDS011;17110;52.602;12.998;2023-01-10T03:28:44;10.07;;;7.13;;
30299;SDS011;17110;52.602;12.998;2023-01-10T03:31:17;11.13;;;7.10;;
30299;SDS011;17110;52.602;12.998;2023-01-10T03:33:55;13.30;;;7.43;;
30299;SDS011;17110;52.602;12.998;2023-01-10T03:38:56;10.55;;;7.38;;
30299;SDS011;17110;52.602;12.998;2023-01-10T03:41:35;9.67;;;7.47;;
30299;SDS011;17110;52.602;12.998;2023-01-10T03:44:15;12.07;;;7.30;;
30299;SDS011;17110;52.602;12.998;2023-01-10T03:49:39;12.23;;;7.78;;
30299;SDS011;17110;52.602;12.998;2023-01-10T03:52:09;13.35;;;8.13;;
30299;SDS011;17110;52.602;12.998;2023-01-10T03:54:37;12.43;;;8.00;;
30299;SDS011;17110;52.602;12.998;2023-01-10T03:57:06;13.45;;;7.93;;
30299;SDS011;17110;52.602;12.998;2023-01-10T03:59:32;14.98;;;8.30;;
30299;SDS011;17110;52.602;12.998;2023-01-10T04:01:58;15.32;;;8.80;;
30299;SDS011;17110;52.602;12.998;2023-01-10T04:04:24;13.43;;;8.10;;
30299;SDS011;17110;52.602;12.998;2023-01-10T04:06:49;13.32;;;8.30;;
30299;SDS011;17110;52.602;12.998;2023-01-10T04:09:15;13.27;;;9.23;;
30299;SDS011;17110;52.602;12.998;2023-01-10T04:11:41;17.13;;;8.73;;
30299;SDS011;17110;52.602;12.998;2023-01-10T04:14:06;14.93;;;8.80;;
30299;SDS011;17110;52.602;12.998;2023-01-10T04:16:32;19.23;;;9.30;;
30299;SDS011;17110;52.602;12.998;2023-01-10T04:18:58;18.75;;;9.80;;
30299;SDS011;17110;52.602;12.998;2023-01-10T04:21:24;17.70;;;10.40;;
30299;SDS011;17110;52.602;12.998;2023-01-10T04:23:49;18.50;;;9.65;;
30299;SDS011;17110;52.602;12.998;2023-01-10T04:26:15;17.95;;;10.73;;
30299;SDS011;17110;52.602;12.998;2023-01-10T04:28:41;18.77;;;11.10;;
30299;SDS011;17110;52.602;12.998;2023-01-10T04:31:06;18.83;;;10.93;;
30299;SDS011;17110;52.602;12.998;2023-01-10T04:33:32;18.03;;;10.60;;
30299;SDS011;17110;52.602;12.998;2023-01-10T04:35:58;19.30;;;10.77;;
30299;SDS011;17110;52.602;12.998;2023-01-10T04:38:24;20.00;;;10.98;;
30299;SDS011;17110;52.602;12.998;2023-01-10T04:40:53;21.33;;;11.80;;
30299;SDS011;17110;52.602;12.998;2023-01-10T04:43:20;21.70;;;11.45;;
30299;SDS011;17110;52.602;12.998;2023-01-10T04:45:46;19.77;;;11.15;;
30299;SDS011;17110;52.602;12.998;2023-01-10T04:48:12;23.47;;;11.60;;
30299;SDS011;17110;52.602;12.998;2023-01-10T04:50:38;25.87;;;11.73;;
30299;SDS011;17110;52.602;12.998;2023-01-10T04:53:04;20.60;;;11.20;;
30299;SDS011;17110;52.602;12.998;2023-01-10T04:55:30;21.60;;;11.47;;
30299;SDS011;17110;52.602;12.998;2023-01-10T04:57:56;20.90;;;10.93;;
30299;SDS011;17110;52.602;12.998;2023-01-10T05:00:22;23.27;;;12.13;;
30299;SDS011;17110;52.602;12.998;2023-01-10T05:02:48;19.48;;;11.48;;
30299;SDS011;17110;52.602;12.998;2023-01-10T05:05:18;20.25;;;10.60;;
30299;SDS011;17110;52.602;12.998;2023-01-10T05:07:45;22.87;;;11.13;;
30299;SDS011;17110;52.602;12.998;2023-01-10T05:10:11;20.15;;;10.57;;
30299;SDS011;17110;52.602;12.998;2023-01-10T05:12:37;20.55;;;11.32;;
30299;SDS011;17110;52.602;12.998;2023-01-10T05:15:03;20.08;;;10.13;;
30299;SDS011;17110;52.602;12.998;2023-01-10T05:17:30;21.67;;;10.23;;
30299;SDS011;17110;52.602;12.998;2023-01-10T05:19:55;22.57;;;10.90;;
30299;SDS011;17110;52.602;12.998;2023-01-10T05:22:21;22.30;;;10.15;;
30299;SDS011;17110;52.602;12.998;2023-01-10T05:24:47;21.42;;;10.35;;
30299;SDS011;17110;52.602;12.998;2023-01-10T05:27:12;20.60;;;10.67;;
30299;SDS011;17110;52.602;12.998;2023-01-10T05:29:38;23.70;;;10.67;;
30299;SDS011;17110;52.602;12.998;2023-01-10T05:32:04;20.52;;;10.85;;
30299;SDS011;17110;52.602;12.998;2023-01-10T05:34:30;27.05;;;11.85;;
30299;SDS011;17110;52.602;12.998;2023-01-10T05:36:55;22.15;;;12.55;;
30299;SDS011;17110;52.602;12.998;2023-01-10T05:39:21;20.00;;;11.40;;
30299;SDS011;17110;52.602;12.998;2023-01-10T05:41:47;22.43;;;11.17;;
30299;SDS011;17110;52.602;12.998;2023-01-10T05:44:12;25.92;;;11.60;;
30299;SDS011;17110;52.602;12.998;2023-01-10T05:46:38;21.27;;;12.23;;
30299;SDS011;17110;52.602;12.998;2023-01-10T05:49:04;20.20;;;11.33;;
30299;SDS011;17110;52.602;12.998;2023-01-10T05:51:29;23.48;;;11.43;;
30299;SDS011;17110;52.602;12.998;2023-01-10T05:53:55;19.27;;;11.60;;
30299;SDS011;17110;52.602;12.998;2023-01-10T05:56:22;22.60;;;10.93;;
30299;SDS011;17110;52.602;12.998;2023-01-10T05:58:51;22.08;;;11.50;;
30299;SDS011;17110;52.602;12.998;2023-01-10T06:01:17;25.35;;;11.55;;
30299;SDS011;17110;52.602;12.998;2023-01-10T06:03:43;23.10;;;12.20;;
30299;SDS011;17110;52.602;12.998;2023-01-10T06:06:09;21.17;;;11.67;;
30299;SDS011;17110;52.602;12.998;2023-01-10T06:08:34;18.90;;;11.27;;
30299;SDS011;17110;52.602;12.998;2023-01-10T06:11:04;21.02;;;10.93;;
30299;SDS011;17110;52.602;12.998;2023-01-10T06:13:31;22.77;;;11.27;;
30299;SDS011;17110;52.602;12.998;2023-01-10T06:15:57;20.73;;;10.95;;
30299;SDS011;17110;52.602;12.998;2023-01-10T06:18:23;21.63;;;11.35;;
30299;SDS011;17110;52.602;12.998;2023-01-10T06:20:48;21.05;;;11.35;;
30299;SDS011;17110;52.602;12.998;2023-01-10T06:23:14;22.30;;;11.60;;
30299;SDS011;17110;52.602;12.998;2023-01-10T06:25:40;21.73;;;11.80;;
30299;SDS011;17110;52.602;12.998;2023-01-10T06:28:06;24.25;;;11.18;;
30299;SDS011;17110;52.602;12.998;2023-01-10T06:30:33;22.80;;;11.90;;
30299;SDS011;17110;52.602;12.998;2023-01-10T06:33:00;21.65;;;12.23;;
30299;SDS011;17110;52.602;12.998;2023-01-10T06:35:26;24.13;;;12.15;;
30299;SDS011;17110;52.602;12.998;2023-01-10T06:37:52;20.80;;;11.80;;
30299;SDS011;17110;52.602;12.998;2023-01-10T06:40:18;23.20;;;13.80;;
30299;SDS011;17110;52.602;12.998;2023-01-10T06:42:44;29.77;;;13.70;;
30299;SDS011;17110;52.602;12.998;2023-01-10T06:45:10;21.10;;;12.80;;
30299;SDS011;17110;52.602;12.998;2023-01-10T06:47:36;25.73;;;13.38;;
30299;SDS011;17110;52.602;12.998;2023-01-10T06:50:02;23.73;;;13.38;;
30299;SDS011;17110;52.602;12.998;2023-01-10T06:52:28;23.87;;;13.90;;
30299;SDS011;17110;52.602;12.998;2023-01-10T06:54:55;24.88;;;13.43;;
30299;SDS011;17110;52.602;12.998;2023-01-10T06:57:20;27.00;;;14.33;;
30299;SDS011;17110;52.602;12.998;2023-01-10T06:59:48;22.95;;;13.93;;
30299;SDS011;17110;52.602;12.998;2023-01-10T07:02:14;24.55;;;14.35;;
30299;SDS011;17110;52.602;12.998;2023-01-10T07:04:40;22.63;;;14.02;;
30299;SDS011;17110;52.602;12.998;2023-01-10T07:07:06;24.40;;;14.32;;
30299;SDS011;17110;52.602;12.998;2023-01-10T07:09:31;23.42;;;14.02;;
30299;SDS011;17110;52.602;12.998;2023-01-10T07:11:59;25.13;;;14.67;;
30299;SDS011;17110;52.602;12.998;2023-01-10T07:14:25;24.77;;;14.63;;
30299;SDS011;17110;52.602;12.998;2023-01-10T07:17:09;26.10;;;14.67;;
30299;SDS011;17110;52.602;12.998;2023-01-10T07:22:23;26.17;;;15.48;;
30299;SDS011;17110;52.602;12.998;2023-01-10T07:24:49;25.17;;;14.60;;
30299;SDS011;17110;52.602;12.998;2023-01-10T07:27:14;24.47;;;15.83;;
30299;SDS011;17110;52.602;12.998;2023-01-10T07:29:41;26.93;;;16.20;;
30299;SDS011;17110;52.602;12.998;2023-01-10T07:32:07;31.13;;;17.80;;
30299;SDS011;17110;52.602;12.998;2023-01-10T07:34:33;28.25;;;17.40;;
30299;SDS011;17110;52.602;12.998;2023-01-10T07:36:59;27.40;;;16.80;;
30299;SDS011;17110;52.602;12.998;2023-01-10T07:39:25;28.98;;;17.10;;
30299;SDS011;17110;52.602;12.998;2023-01-10T07:41:51;25.97;;;17.00;;
30299;SDS011;17110;52.602;12.998;2023-01-10T07:44:17;27.02;;;17.58;;
30299;SDS011;17110;52.602;12.998;2023-01-10T07:46:43;27.40;;;16.23;;
30299;SDS011;17110;52.602;12.998;2023-01-10T07:49:08;27.08;;;15.70;;
30299;SDS011;17110;52.602;12.998;2023-01-10T07:51:34;27.13;;;16.20;;
30299;SDS011;17110;52.602;12.998;2023-01-10T07:54:00;26.73;;;15.90;;
30299;SDS011;17110;52.602;12.998;2023-01-10T07:56:25;25.00;;;15.37;;
30299;SDS011;17110;52.602;12.998;2023-01-10T07:58:51;24.08;;;15.45;;
30299;SDS011;17110;52.602;12.998;2023-01-10T08:01:17;24.75;;;14.43;;
30299;SDS011;17110;52.602;12.998;2023-01-10T08:03:43;24.83;;;15.00;;
30299;SDS011;17110;52.602;12.998;2023-01-10T08:06:09;26.23;;;14.70;;
30299;SDS011;17110;52.602;12.998;2023-01-10T08:08:35;23.13;;;13.70;;
30299;SDS011;17110;52.602;12.998;2023-01-10T08:11:02;23.27;;;14.07;;
30299;SDS011;17110;52.602;12.998;2023-01-10T08:13:28;21.80;;;13.13;;
30299;SDS011;17110;52.602;12.998;2023-01-10T08:15:55;23.13;;;13.65;;
30299;SDS011;17110;52.602;12.998;2023-01-10T08:18:21;19.65;;;12.88;;
30299;SDS011;17110;52.602;12.998;2023-01-10T08:20:48;20.10;;;12.77;;
30299;SDS011;17110;52.602;12.998;2023-01-10T08:23:15;20.13;;;12.55;;
30299;SDS011;17110;52.602;12.998;2023-01-10T08:25:41;20.07;;;13.20;;
30299;SDS011;17110;52.602;12.998;2023-01-10T08:28:07;23.57;;;13.10;;
30299;SDS011;17110;52.602;12.998;2023-01-10T08:30:33;22.40;;;13.50;;
30299;SDS011;17110;52.602;12.998;2023-01-10T08:33:02;19.98;;;13.05;;
30299;SDS011;17110;52.602;12.998;2023-01-10T08:35:29;18.25;;;12.50;;
30299;SDS011;17110;52.602;12.998;2023-01-10T08:37:58;20.27;;;12.50;;
30299;SDS011;17110;52.602;12.998;2023-01-10T08:40:24;21.90;;;12.52;;
30299;SDS011;17110;52.602;12.998;2023-01-10T08:42:57;20.58;;;12.80;;
30299;SDS011;17110;52.602;12.998;2023-01-10T08:45:24;18.05;;;11.75;;
30299;SDS011;17110;52.602;12.998;2023-01-10T08:47:49;20.55;;;13.25;;
30299;SDS011;17110;52.602;12.998;2023-01-10T08:50:15;19.83;;;12.43;;
30299;SDS011;17110;52.602;12.998;2023-01-10T08:52:41;20.90;;;12.50;;
30299;SDS011;17110;52.602;12.998;2023-01-10T08:55:06;22.10;;;11.57;;
30299;SDS011;17110;52.602;12.998;2023-01-10T08:57:33;18.67;;;11.60;;
30299;SDS011;17110;52.602;12.998;2023-01-10T08:59:58;18.88;;;12.18;;
30299;SDS011;17110;52.602;12.998;2023-01-10T09:02:24;20.92;;;11.48;;
30299;SDS011;17110;52.602;12.998;2023-01-10T09:04:49;18.83;;;11.47;;
30299;SDS011;17110;52.602;12.998;2023-01-10T09:07:15;20.45;;;11.63;;
30299;SDS011;17110;52.602;12.998;2023-01-10T09:09:41;17.80;;;11.15;;
30299;SDS011;17110;52.602;12.998;2023-01-10T09:12:07;19.55;;;12.75;;
30299;SDS011;17110;52.602;12.998;2023-01-10T09:14:52;19.75;;;12.52;;
30299;SDS011;17110;52.602;12.998;2023-01-10T09:17:19;17.92;;;11.73;;
30299;SDS011;17110;52.602;12.998;2023-01-10T09:19:45;18.35;;;10.55;;
30299;SDS011;17110;52.602;12.998;2023-01-10T09:22:11;16.52;;;10.82;;
30299;SDS011;17110;52.602;12.998;2023-01-10T09:24:36;16.53;;;9.87;;
30299;SDS011;17110;52.602;12.998;2023-01-10T09:27:05;18.10;;;10.00;;
30299;SDS011;17110;52.602;12.998;2023-01-10T09:29:31;17.95;;;9.77;;
30299;SDS011;17110;52.602;12.998;2023-01-10T09:31:57;20.25;;;9.95;;
30299;SDS011;17110;52.602;12.998;2023-01-10T09:34:22;16.87;;;9.30;;
30299;SDS011;17110;52.602;12.998;2023-01-10T09:36:49;17.75;;;9.68;;
30299;SDS011;17110;52.602;12.998;2023-01-10T09:39:14;17.63;;;8.73;;
30299;SDS011;17110;52.602;12.998;2023-01-10T09:47:21;16.63;;;9.70;;
30299;SDS011;17110;52.602;12.998;2023-01-10T09:52:32;17.30;;;9.23;;
30299;SDS011;17110;52.602;12.998;2023-01-10T09:55:05;19.55;;;9.85;;
30299;SDS011;17110;52.602;12.998;2023-01-10T09:57:55;16.27;;;8.75;;
30299;SDS011;17110;52.602;12.998;2023-01-10T10:00:48;15.30;;;8.38;;
30299;SDS011;17110;52.602;12.998;2023-01-10T10:03:37;17.02;;;9.30;;
30299;SDS011;17110;52.602;12.998;2023-01-10T10:06:07;18.37;;;9.20;;
30299;SDS011;17110;52.602;12.998;2023-01-10T10:08:36;16.13;;;8.55;;
30299;SDS011;17110;52.602;12.998;2023-01-10T10:13:43;16.13;;;7.90;;
30299;SDS011;17110;52.602;12.998;2023-01-10T10:18:41;16.60;;;7.65;;
30299;SDS011;17110;52.602;12.998;2023-01-10T10:21:18;16.73;;;8.20;;
30299;SDS011;17110;52.602;12.998;2023-01-10T10:24:15;18.77;;;8.48;;
30299;SDS011;17110;52.602;12.998;2023-01-10T10:34:52;18.08;;;7.70;;
30299;SDS011;17110;52.602;12.998;2023-01-10T10:37:39;18.20;;;7.55;;
30299;SDS011;17110;52.602;12.998;2023-01-10T10:42:38;16.75;;;6.65;;
30299;SDS011;17110;52.602;12.998;2023-01-10T10:45:14;14.55;;;6.18;;
30299;SDS011;17110;52.602;12.998;2023-01-10T10:47:46;14.45;;;5.82;;
30299;SDS011;17110;52.602;12.998;2023-01-10T10:52:44;14.98;;;5.80;;
30299;SDS011;17110;52.602;12.998;2023-01-10T10:55:17;17.40;;;5.70;;
30299;SDS011;17110;52.602;12.998;2023-01-10T10:57:47;15.52;;;6.25;;
30299;SDS011;17110;52.602;12.998;2023-01-10T11:00:14;13.52;;;5.70;;
30299;SDS011;17110;52.602;12.998;2023-01-10T11:02:59;17.02;;;5.75;;
30299;SDS011;17110;52.602;12.998;2023-01-10T11:05:45;18.30;;;5.77;;
30299;SDS011;17110;52.602;12.998;2023-01-10T11:08:12;15.13;;;5.25;;
30299;SDS011;17110;52.602;12.998;2023-01-10T11:10:48;11.15;;;4.78;;
30299;SDS011;17110;52.602;12.998;2023-01-10T11:15:49;16.30;;;5.20;;
30299;SDS011;17110;52.602;12.998;2023-01-10T11:18:19;11.23;;;4.68;;
30299;SDS011;17110;52.602;12.998;2023-01-10T11:25:59;13.25;;;5.03;;
30299;SDS011;17110;52.602;12.998;2023-01-10T11:28:28;16.88;;;5.30;;
30299;SDS011;17110;52.602;12.998;2023-01-10T11:30:56;12.48;;;4.80;;
30299;SDS011;17110;52.602;12.998;2023-01-10T11:33:25;13.73;;;5.15;;
30299;SDS011;17110;52.602;12.998;2023-01-10T11:36:05;17.27;;;5.15;;
30299;SDS011;17110;52.602;12.998;2023-01-10T11:38:34;15.65;;;5.90;;
30299;SDS011;17110;52.602;12.998;2023-01-10T11:46:00;14.47;;;5.40;;
30299;SDS011;17110;52.602;12.998;2023-01-10T11:48:50;14.38;;;5.80;;
30299;SDS011;17110;52.602;12.998;2023-01-10T11:51:24;18.02;;;6.10;;
30299;SDS011;17110;52.602;12.998;2023-01-10T11:54:12;14.50;;;5.87;;
30299;SDS011;17110;52.602;12.998;2023-01-10T11:56:53;14.70;;;5.68;;
30299;SDS011;17110;52.602;12.998;2023-01-10T11:59:19;15.02;;;5.97;;
30299;SDS011;17110;52.602;12.998;2023-01-10T12:04:40;18.08;;;5.80;;
30299;SDS011;17110;52.602;12.998;2023-01-10T12:07:09;15.25;;;5.38;;
30299;SDS011;17110;52.602;12.998;2023-01-10T12:12:26;18.75;;;5.93;;
30299;SDS011;17110;52.602;12.998;2023-01-10T12:14:57;15.65;;;5.40;;
30299;SDS011;17110;52.602;12.998;2023-01-10T12:17:44;15.25;;;5.03;;
30299;SDS011;17110;52.602;12.998;2023-01-10T12:20:11;19.20;;;5.95;;
30299;SDS011;17110;52.602;12.998;2023-01-10T12:22:40;13.23;;;5.65;;
30299;SDS011;17110;52.602;12.998;2023-01-10T12:25:13;14.88;;;5.60;;
30299;SDS011;17110;52.602;12.998;2023-01-10T12:27:45;12.57;;;5.03;;
30299;SDS011;17110;52.602;12.998;2023-01-10T12:33:11;16.98;;;5.35;;
30299;SDS011;17110;52.602;12.998;2023-01-10T12:41:06;14.98;;;5.28;;
30299;SDS011;17110;52.602;12.998;2023-01-10T12:43:35;16.23;;;5.00;;
30299;SDS011;17110;52.602;12.998;2023-01-10T12:46:42;19.60;;;6.07;;
30299;SDS011;17110;52.602;12.998;2023-01-10T12:49:24;19.58;;;5.25;;
30299;SDS011;17110;52.602;12.998;2023-01-10T12:52:04;15.40;;;5.13;;
30299;SDS011;17110;52.602;12.998;2023-01-10T12:54:36;12.30;;;4.77;;
30299;SDS011;17110;52.602;12.998;2023-01-10T12:57:04;13.80;;;4.70;;
30299;SDS011;17110;52.602;12.998;2023-01-10T12:59:46;18.58;;;5.85;;
30299;SDS011;17110;52.602;12.998;2023-01-10T13:02:17;16.42;;;5.65;;
30299;SDS011;17110;52.602;12.998;2023-01-10T13:04:50;16.73;;;5.28;;
30299;SDS011;17110;52.602;12.998;2023-01-10T13:07:19;15.55;;;4.78;;
30299;SDS011;17110;52.602;12.998;2023-01-10T13:09:48;16.50;;;5.68;;
30299;SDS011;17110;52.602;12.998;2023-01-10T13:12:20;16.30;;;5.80;;
30299;SDS011;17110;52.602;12.998;2023-01-10T13:15:27;14.15;;;5.10;;
30299;SDS011;17110;52.602;12.998;2023-01-10T13:17:57;14.60;;;4.75;;
30299;SDS011;17110;52.602;12.998;2023-01-10T13:20:27;16.83;;;5.35;;
30299;SDS011;17110;52.602;12.998;2023-01-10T13:23:01;12.98;;;5.20;;
30299;SDS011;17110;52.602;12.998;2023-01-10T13:25:55;15.07;;;5.35;;
30299;SDS011;17110;52.602;12.998;2023-01-10T13:28:27;13.00;;;5.30;;
30299;SDS011;17110;52.602;12.998;2023-01-10T13:30:55;14.10;;;4.90;;
30299;SDS011;17110;52.602;12.998;2023-01-10T13:33:26;12.25;;;5.05;;
30299;SDS011;17110;52.602;12.998;2023-01-10T14:05:25;14.70;;;6.55;;
30299;SDS011;17110;52.602;12.998;2023-01-10T14:07:51;14.87;;;6.07;;
30299;SDS011;17110;52.602;12.998;2023-01-10T14:15:37;13.95;;;5.63;;
30299;SDS011;17110;52.602;12.998;2023-01-10T14:18:21;13.88;;;5.85;;
30299;SDS011;17110;52.602;12.998;2023-01-10T14:20:59;14.07;;;6.93;;
30299;SDS011;17110;52.602;12.998;2023-01-10T14:23:29;15.20;;;6.28;;
30299;SDS011;17110;52.602;12.998;2023-01-10T14:26:00;14.48;;;5.80;;
30299;SDS011;17110;52.602;12.998;2023-01-10T14:28:28;15.77;;;6.55;;
30299;SDS011;17110;52.602;12.998;2023-01-10T14:31:05;17.83;;;6.83;;
30299;SDS011;17110;52.602;12.998;2023-01-10T14:33:33;13.02;;;6.78;;
30299;SDS011;17110;52.602;12.998;2023-01-10T14:36:06;13.05;;;6.70;;
30299;SDS011;17110;52.602;12.998;2023-01-10T14:38:34;19.08;;;6.95;;
30299;SDS011;17110;52.602;12.998;2023-01-10T14:41:11;16.30;;;6.32;;
30299;SDS011;17110;52.602;12.998;2023-01-10T14:44:06;14.90;;;7.40;;
30299;SDS011;17110;52.602;12.998;2023-01-10T14:46:45;17.80;;;7.13;;
30299;SDS011;17110;52.602;12.998;2023-01-10T14:49:23;17.52;;;7.10;;
30299;SDS011;17110;52.602;12.998;2023-01-10T14:52:18;18.42;;;7.57;;
30299;SDS011;17110;52.602;12.998;2023-01-10T14:54:46;14.00;;;7.68;;
30299;SDS011;17110;52.602;12.998;2023-01-10T14:57:19;14.07;;;7.18;;
30299;SDS011;17110;52.602;12.998;2023-01-10T14:59:46;17.98;;;8.13;;
30299;SDS011;17110;52.602;12.998;2023-01-10T15:02:18;18.52;;;7.63;;
30299;SDS011;17110;52.602;12.998;2023-01-10T15:07:38;16.40;;;7.93;;
30299;SDS011;17110;52.602;12.998;2023-01-10T15:10:37;16.95;;;7.70;;
30299;SDS011;17110;52.602;12.998;2023-01-10T15:12:59;16.90;;;8.18;;
30299;SDS011;17110;52.602;12.998;2023-01-10T15:15:35;18.38;;;7.18;;
30299;SDS011;17110;52.602;12.998;2023-01-10T15:18:05;14.43;;;8.10;;
30299;SDS011;17110;52.602;12.998;2023-01-10T15:20:40;18.95;;;8.80;;
30299;SDS011;17110;52.602;12.998;2023-01-10T15:23:11;16.52;;;8.77;;
30299;SDS011;17110;52.602;12.998;2023-01-10T15:25:38;17.23;;;7.20;;
30299;SDS011;17110;52.602;12.998;2023-01-10T15:28:14;19.15;;;7.57;;
30299;SDS011;17110;52.602;12.998;2023-01-10T15:30:42;17.27;;;7.47;;
30299;SDS011;17110;52.602;12.998;2023-01-10T15:33:11;15.07;;;7.10;;
30299;SDS011;17110;52.602;12.998;2023-01-10T15:35:41;14.57;;;7.20;;
30299;SDS011;17110;52.602;12.998;2023-01-10T15:38:16;15.63;;;6.85;;
30299;SDS011;17110;52.602;12.998;2023-01-10T15:40:56;13.95;;;6.75;;
30299;SDS011;17110;52.602;12.998;2023-01-10T15:43:30;18.30;;;7.35;;
30299;SDS011;17110;52.602;12.998;2023-01-10T15:45:58;17.23;;;7.55;;
30299;SDS011;17110;52.602;12.998;2023-01-10T15:50:58;15.57;;;7.33;;
30299;SDS011;17110;52.602;12.998;2023-01-10T15:53:52;14.77;;;7.38;;
30299;SDS011;17110;52.602;12.998;2023-01-10T15:56:29;17.42;;;7.65;;
30299;SDS011;17110;52.602;12.998;2023-01-10T15:58:55;14.57;;;6.75;;
30299;SDS011;17110;52.602;12.998;2023-01-10T16:01:22;17.17;;;7.25;;
30299;SDS011;17110;52.602;12.998;2023-01-10T16:03:50;14.83;;;8.27;;
30299;SDS011;17110;52.602;12.998;2023-01-10T16:06:31;15.45;;;7.72;;
30299;SDS011;17110;52.602;12.998;2023-01-10T16:09:02;14.37;;;7.57;;
30299;SDS011;17110;52.602;12.998;2023-01-10T16:14:22;14.77;;;8.15;;
30299;SDS011;17110;52.602;12.998;2023-01-10T16:16:48;15.77;;;8.48;;
30299;SDS011;17110;52.602;12.998;2023-01-10T16:19:14;19.30;;;10.23;;
30299;SDS011;17110;52.602;12.998;2023-01-10T16:21:41;19.60;;;9.97;;
30299;SDS011;17110;52.602;12.998;2023-01-10T16:24:15;20.95;;;11.15;;
30299;SDS011;17110;52.602;12.998;2023-01-10T16:26:43;20.73;;;10.60;;
30299;SDS011;17110;52.602;12.998;2023-01-10T16:29:10;16.60;;;10.07;;
30299;SDS011;17110;52.602;12.998;2023-01-10T16:31:37;19.30;;;11.43;;
30299;SDS011;17110;52.602;12.998;2023-01-10T16:34:03;17.45;;;11.75;;
30299;SDS011;17110;52.602;12.998;2023-01-10T16:36:28;18.67;;;11.57;;
30299;SDS011;17110;52.602;12.998;2023-01-10T16:38:54;18.40;;;11.90;;
30299;SDS011;17110;52.602;12.998;2023-01-10T16:41:20;19.10;;;11.55;;
30299;SDS011;17110;52.602;12.998;2023-01-10T16:44:04;16.77;;;11.03;;
30299;SDS011;17110;52.602;12.998;2023-01-10T16:46:30;20.07;;;9.50;;
30299;SDS011;17110;52.602;12.998;2023-01-10T16:48:55;18.25;;;8.85;;
30299;SDS011;17110;52.602;12.998;2023-01-10T16:51:26;14.02;;;7.90;;